sensor_id;sensor_type;location;lat;lon;timestamp;P1;durP1;ratioP1;P2;durP2;ratioP2
70985;SDS011;58645;43.068;25.610;2022-09-09T00:01:02;6.13;;;2.58;;
70985;SDS011;58645;43.068;25.610;2022-09-09T00:03:40;6.70;;;2.78;;
70985;SDS011;58645;43.068;25.610;2022-09-09T00:06:28;5.47;;;2.55;;
70985;SDS011;58645;43.068;25.610;2022-09-09T00:14:27;5.00;;;2.33;;
70985;SDS011;58645;43.068;25.610;2022-09-09T00:17:20;4.13;;;2.95;;
70985;SDS011;58645;43.068;25.610;2022-09-09T00:19:58;4.05;;;1.98;;
70985;SDS011;58645;43.068;25.610;2022-09-09T00:22:52;6.43;;;2.60;;
70985;SDS011;58645;43.068;25.610;2022-09-09T00:25:28;3.58;;;2.80;;
70985;SDS011;58645;43.068;25.610;2022-09-09T00:28:02;5.05;;;2.35;;
70985;SDS011;58645;43.068;25.610;2022-09-09T00:30:39;4.90;;;3.03;;
70985;SDS011;58645;43.068;25.610;2022-09-09T00:33:10;3.25;;;2.85;;
70985;SDS011;58645;43.068;25.610;2022-09-09T00:35:41;5.15;;;2.65;;
70985;SDS011;58645;43.068;25.610;2022-09-09T00:38:15;2.58;;;2.25;;
70985;SDS011;58645;43.068;25.610;2022-09-09T00:41:22;3.33;;;1.70;;
70985;SDS011;58645;43.068;25.610;2022-09-09T00:46:59;5.75;;;2.53;;
70985;SDS011;58645;43.068;25.610;2022-09-09T00:52:12;4.10;;;1.90;;
70985;SDS011;58645;43.068;25.610;2022-09-09T00:57:34;3.08;;;2.25;;
70985;SDS011;58645;43.068;25.610;2022-09-09T01:02:53;5.07;;;2.70;;
70985;SDS011;58645;43.068;25.610;2022-09-09T01:07:53;6.30;;;2.38;;
70985;SDS011;58645;43.068;25.610;2022-09-09T01:13:00;4.35;;;2.90;;
70985;SDS011;58645;43.068;25.610;2022-09-09T01:15:33;3.33;;;1.98;;
70985;SDS011;58645;43.068;25.610;2022-09-09T01:18:13;4.07;;;2.65;;
70985;SDS011;58645;43.068;25.610;2022-09-09T01:26:12;3.80;;;2.08;;
70985;SDS011;58645;43.068;25.610;2022-09-09T01:28:51;4.10;;;2.42;;
70985;SDS011;58645;43.068;25.610;2022-09-09T01:34:33;5.70;;;2.70;;
70985;SDS011;58645;43.068;25.610;2022-09-09T01:37:07;4.60;;;2.90;;
70985;SDS011;58645;43.068;25.610;2022-09-09T01:39:35;8.02;;;2.53;;
70985;SDS011;58645;43.068;25.610;2022-09-09T01:42:04;3.42;;;2.42;;
70985;SDS011;58645;43.068;25.610;2022-09-09T01:44:33;2.47;;;1.90;;
70985;SDS011;58645;43.068;25.610;2022-09-09T01:47:01;5.40;;;2.63;;
70985;SDS011;58645;43.068;25.610;2022-09-09T01:49:27;3.55;;;2.67;;
70985;SDS011;58645;43.068;25.610;2022-09-09T01:51:53;2.53;;;1.73;;
70985;SDS011;58645;43.068;25.610;2022-09-09T01:54:23;4.50;;;2.95;;
70985;SDS011;58645;43.068;25.610;2022-09-09T01:59:43;3.55;;;2.03;;
70985;SDS011;58645;43.068;25.610;2022-09-09T02:08:06;3.60;;;2.40;;
70985;SDS011;58645;43.068;25.610;2022-09-09T02:10:42;2.83;;;2.40;;
70985;SDS011;58645;43.068;25.610;2022-09-09T02:13:14;4.25;;;2.47;;
70985;SDS011;58645;43.068;25.610;2022-09-09T02:18:10;5.07;;;2.25;;
70985;SDS011;58645;43.068;25.610;2022-09-09T02:20:39;3.00;;;2.28;;
70985;SDS011;58645;43.068;25.610;2022-09-09T02:23:06;5.13;;;2.38;;
70985;SDS011;58645;43.068;25.610;2022-09-09T02:25:33;6.55;;;2.78;;
70985;SDS011;58645;43.068;25.610;2022-09-09T02:28:02;3.92;;;2.67;;
70985;SDS011;58645;43.068;25.610;2022-09-09T02:30:32;2.80;;;2.35;;
70985;SDS011;58645;43.068;25.610;2022-09-09T02:33:00;3.40;;;2.38;;
70985;SDS011;58645;43.068;25.610;2022-09-09T02:35:29;3.78;;;2.08;;
70985;SDS011;58645;43.068;25.610;2022-09-09T02:37:59;3.80;;;2.40;;
70985;SDS011;58645;43.068;25.610;2022-09-09T02:40:29;4.05;;;2.40;;
70985;SDS011;58645;43.068;25.610;2022-09-09T02:42:55;3.33;;;2.47;;
70985;SDS011;58645;43.068;25.610;2022-09-09T02:45:23;3.53;;;2.70;;
70985;SDS011;58645;43.068;25.610;2022-09-09T02:50:54;3.72;;;2.47;;
70985;SDS011;58645;43.068;25.610;2022-09-09T02:53:39;2.78;;;2.08;;
70985;SDS011;58645;43.068;25.610;2022-09-09T02:56:15;3.45;;;2.03;;
70985;SDS011;58645;43.068;25.610;2022-09-09T02:58:45;4.25;;;2.38;;
70985;SDS011;58645;43.068;25.610;2022-09-09T03:01:11;4.35;;;2.55;;
70985;SDS011;58645;43.068;25.610;2022-09-09T03:03:37;3.30;;;2.40;;
70985;SDS011;58645;43.068;25.610;2022-09-09T03:06:03;3.53;;;2.45;;
70985;SDS011;58645;43.068;25.610;2022-09-09T03:08:30;3.80;;;2.45;;
70985;SDS011;58645;43.068;25.610;2022-09-09T03:10:58;3.80;;;2.30;;
70985;SDS011;58645;43.068;25.610;2022-09-09T03:13:26;4.32;;;2.58;;
70985;SDS011;58645;43.068;25.610;2022-09-09T03:18:18;4.75;;;2.63;;
70985;SDS011;58645;43.068;25.610;2022-09-09T03:20:43;5.20;;;2.63;;
70985;SDS011;58645;43.068;25.610;2022-09-09T03:23:11;4.68;;;2.60;;
70985;SDS011;58645;43.068;25.610;2022-09-09T03:25:38;4.28;;;2.40;;
70985;SDS011;58645;43.068;25.610;2022-09-09T03:28:04;3.58;;;2.53;;
70985;SDS011;58645;43.068;25.610;2022-09-09T03:30:30;5.57;;;2.95;;
70985;SDS011;58645;43.068;25.610;2022-09-09T03:32:56;4.30;;;2.50;;
70985;SDS011;58645;43.068;25.610;2022-09-09T03:35:22;3.22;;;2.40;;
70985;SDS011;58645;43.068;25.610;2022-09-09T03:37:48;4.03;;;2.15;;
70985;SDS011;58645;43.068;25.610;2022-09-09T03:42:40;4.70;;;2.47;;
70985;SDS011;58645;43.068;25.610;2022-09-09T03:45:06;5.28;;;2.70;;
70985;SDS011;58645;43.068;25.610;2022-09-09T03:47:34;5.35;;;2.65;;
70985;SDS011;58645;43.068;25.610;2022-09-09T03:50:00;5.22;;;2.45;;
70985;SDS011;58645;43.068;25.610;2022-09-09T03:52:26;4.57;;;2.30;;
70985;SDS011;58645;43.068;25.610;2022-09-09T03:54:52;4.07;;;2.55;;
70985;SDS011;58645;43.068;25.610;2022-09-09T03:57:18;3.20;;;2.60;;
70985;SDS011;58645;43.068;25.610;2022-09-09T03:59:44;3.90;;;2.60;;
70985;SDS011;58645;43.068;25.610;2022-09-09T04:02:10;6.68;;;3.05;;
70985;SDS011;58645;43.068;25.610;2022-09-09T04:04:36;4.30;;;2.20;;
70985;SDS011;58645;43.068;25.610;2022-09-09T04:07:02;4.90;;;2.50;;
70985;SDS011;58645;43.068;25.610;2022-09-09T04:09:28;4.28;;;2.35;;
70985;SDS011;58645;43.068;25.610;2022-09-09T04:11:54;6.07;;;2.78;;
70985;SDS011;58645;43.068;25.610;2022-09-09T04:14:20;7.00;;;2.72;;
70985;SDS011;58645;43.068;25.610;2022-09-09T04:16:46;3.80;;;2.55;;
70985;SDS011;58645;43.068;25.610;2022-09-09T04:19:12;5.20;;;2.00;;
70985;SDS011;58645;43.068;25.610;2022-09-09T04:21:39;4.78;;;2.90;;
70985;SDS011;58645;43.068;25.610;2022-09-09T04:24:07;3.78;;;2.75;;
70985;SDS011;58645;43.068;25.610;2022-09-09T04:26:33;11.68;;;2.50;;
70985;SDS011;58645;43.068;25.610;2022-09-09T04:29:01;4.05;;;2.55;;
70985;SDS011;58645;43.068;25.610;2022-09-09T04:31:28;3.83;;;2.03;;
70985;SDS011;58645;43.068;25.610;2022-09-09T04:33:54;4.57;;;2.63;;
70985;SDS011;58645;43.068;25.610;2022-09-09T04:36:21;4.38;;;2.45;;
70985;SDS011;58645;43.068;25.610;2022-09-09T04:38:47;2.70;;;1.88;;
70985;SDS011;58645;43.068;25.610;2022-09-09T04:41:16;4.57;;;2.25;;
70985;SDS011;58645;43.068;25.610;2022-09-09T04:43:42;3.78;;;2.50;;
70985;SDS011;58645;43.068;25.610;2022-09-09T04:46:08;7.85;;;2.85;;
70985;SDS011;58645;43.068;25.610;2022-09-09T04:48:34;4.75;;;2.72;;
70985;SDS011;58645;43.068;25.610;2022-09-09T04:51:08;4.13;;;2.50;;
70985;SDS011;58645;43.068;25.610;2022-09-09T04:53:36;4.07;;;2.30;;
70985;SDS011;58645;43.068;25.610;2022-09-09T04:56:03;4.53;;;2.40;;
70985;SDS011;58645;43.068;25.610;2022-09-09T04:58:31;6.43;;;2.20;;
70985;SDS011;58645;43.068;25.610;2022-09-09T05:01:04;4.22;;;2.03;;
70985;SDS011;58645;43.068;25.610;2022-09-09T05:03:31;4.03;;;1.65;;
70985;SDS011;58645;43.068;25.610;2022-09-09T05:08:29;2.80;;;2.10;;
70985;SDS011;58645;43.068;25.610;2022-09-09T05:10:55;5.70;;;2.20;;
70985;SDS011;58645;43.068;25.610;2022-09-09T05:13:21;3.00;;;2.05;;
70985;SDS011;58645;43.068;25.610;2022-09-09T05:15:51;3.35;;;2.10;;
70985;SDS011;58645;43.068;25.610;2022-09-09T05:18:26;3.10;;;1.70;;
70985;SDS011;58645;43.068;25.610;2022-09-09T05:20:52;6.78;;;2.05;;
70985;SDS011;58645;43.068;25.610;2022-09-09T05:23:24;4.45;;;1.73;;
70985;SDS011;58645;43.068;25.610;2022-09-09T05:28:20;2.58;;;1.63;;
70985;SDS011;58645;43.068;25.610;2022-09-09T05:33:11;3.15;;;1.83;;
70985;SDS011;58645;43.068;25.610;2022-09-09T05:35:37;3.58;;;1.98;;
70985;SDS011;58645;43.068;25.610;2022-09-09T05:38:03;3.00;;;1.83;;
70985;SDS011;58645;43.068;25.610;2022-09-09T05:40:29;2.78;;;1.88;;
70985;SDS011;58645;43.068;25.610;2022-09-09T05:42:56;5.40;;;1.88;;
70985;SDS011;58645;43.068;25.610;2022-09-09T05:45:25;7.32;;;1.92;;
70985;SDS011;58645;43.068;25.610;2022-09-09T05:47:51;5.97;;;2.40;;
70985;SDS011;58645;43.068;25.610;2022-09-09T05:50:20;3.42;;;2.10;;
70985;SDS011;58645;43.068;25.610;2022-09-09T05:52:46;4.60;;;2.45;;
70985;SDS011;58645;43.068;25.610;2022-09-09T05:55:13;4.93;;;2.40;;
70985;SDS011;58645;43.068;25.610;2022-09-09T05:57:38;6.20;;;1.95;;
70985;SDS011;58645;43.068;25.610;2022-09-09T06:00:04;7.65;;;2.35;;
70985;SDS011;58645;43.068;25.610;2022-09-09T06:02:30;5.72;;;1.80;;
70985;SDS011;58645;43.068;25.610;2022-09-09T06:04:57;5.25;;;2.33;;
70985;SDS011;58645;43.068;25.610;2022-09-09T06:07:23;4.47;;;2.25;;
70985;SDS011;58645;43.068;25.610;2022-09-09T06:09:48;3.60;;;2.55;;
70985;SDS011;58645;43.068;25.610;2022-09-09T06:12:16;3.35;;;2.10;;
70985;SDS011;58645;43.068;25.610;2022-09-09T06:14:42;5.93;;;2.30;;
70985;SDS011;58645;43.068;25.610;2022-09-09T06:17:08;5.78;;;2.20;;
70985;SDS011;58645;43.068;25.610;2022-09-09T06:19:34;3.95;;;2.10;;
70985;SDS011;58645;43.068;25.610;2022-09-09T06:21:59;5.25;;;2.78;;
70985;SDS011;58645;43.068;25.610;2022-09-09T06:24:25;5.57;;;2.35;;
70985;SDS011;58645;43.068;25.610;2022-09-09T06:26:51;4.13;;;1.83;;
70985;SDS011;58645;43.068;25.610;2022-09-09T06:29:16;4.72;;;2.58;;
70985;SDS011;58645;43.068;25.610;2022-09-09T06:31:42;4.95;;;2.00;;
70985;SDS011;58645;43.068;25.610;2022-09-09T06:34:08;4.07;;;2.10;;
70985;SDS011;58645;43.068;25.610;2022-09-09T06:36:35;3.92;;;2.10;;
70985;SDS011;58645;43.068;25.610;2022-09-09T06:39:03;2.80;;;2.30;;
70985;SDS011;58645;43.068;25.610;2022-09-09T06:41:30;4.25;;;1.95;;
70985;SDS011;58645;43.068;25.610;2022-09-09T06:43:58;3.00;;;1.80;;
70985;SDS011;58645;43.068;25.610;2022-09-09T06:46:27;2.78;;;1.90;;
70985;SDS011;58645;43.068;25.610;2022-09-09T06:51:23;4.28;;;2.30;;
70985;SDS011;58645;43.068;25.610;2022-09-09T06:53:51;2.65;;;1.90;;
70985;SDS011;58645;43.068;25.610;2022-09-09T06:56:24;5.40;;;2.40;;
70985;SDS011;58645;43.068;25.610;2022-09-09T06:58:58;4.85;;;2.25;;
70985;SDS011;58645;43.068;25.610;2022-09-09T07:01:29;2.63;;;1.90;;
70985;SDS011;58645;43.068;25.610;2022-09-09T07:04:00;4.03;;;2.40;;
70985;SDS011;58645;43.068;25.610;2022-09-09T07:06:27;6.93;;;2.63;;
70985;SDS011;58645;43.068;25.610;2022-09-09T07:08:56;2.90;;;2.00;;
70985;SDS011;58645;43.068;25.610;2022-09-09T07:11:26;3.05;;;1.83;;
70985;SDS011;58645;43.068;25.610;2022-09-09T07:13:54;3.45;;;2.08;;
70985;SDS011;58645;43.068;25.610;2022-09-09T07:16:21;3.70;;;1.73;;
70985;SDS011;58645;43.068;25.610;2022-09-09T07:18:50;3.78;;;2.45;;
70985;SDS011;58645;43.068;25.610;2022-09-09T07:21:17;5.93;;;2.90;;
70985;SDS011;58645;43.068;25.610;2022-09-09T07:23:44;4.18;;;2.47;;
70985;SDS011;58645;43.068;25.610;2022-09-09T07:26:14;3.58;;;2.67;;
70985;SDS011;58645;43.068;25.610;2022-09-09T07:28:42;2.90;;;1.77;;
70985;SDS011;58645;43.068;25.610;2022-09-09T07:31:16;8.68;;;1.85;;
70985;SDS011;58645;43.068;25.610;2022-09-09T07:33:46;3.70;;;2.20;;
70985;SDS011;58645;43.068;25.610;2022-09-09T07:36:46;3.30;;;2.53;;
70985;SDS011;58645;43.068;25.610;2022-09-09T07:39:08;3.95;;;2.10;;
70985;SDS011;58645;43.068;25.610;2022-09-09T07:41:44;5.07;;;2.38;;
70985;SDS011;58645;43.068;25.610;2022-09-09T07:44:12;4.07;;;2.13;;
70985;SDS011;58645;43.068;25.610;2022-09-09T07:46:42;3.83;;;1.73;;
70985;SDS011;58645;43.068;25.610;2022-09-09T07:49:10;4.53;;;2.47;;
70985;SDS011;58645;43.068;25.610;2022-09-09T07:51:40;6.75;;;2.85;;
70985;SDS011;58645;43.068;25.610;2022-09-09T07:54:10;2.70;;;1.88;;
70985;SDS011;58645;43.068;25.610;2022-09-09T07:56:37;3.97;;;2.00;;
70985;SDS011;58645;43.068;25.610;2022-09-09T07:59:04;5.72;;;2.38;;
70985;SDS011;58645;43.068;25.610;2022-09-09T08:01:35;5.75;;;2.22;;
70985;SDS011;58645;43.068;25.610;2022-09-09T08:04:08;3.30;;;2.30;;
70985;SDS011;58645;43.068;25.610;2022-09-09T08:06:40;3.75;;;1.73;;
70985;SDS011;58645;43.068;25.610;2022-09-09T08:09:11;3.85;;;2.38;;
70985;SDS011;58645;43.068;25.610;2022-09-09T08:11:37;3.25;;;2.20;;
70985;SDS011;58645;43.068;25.610;2022-09-09T08:14:05;3.75;;;2.40;;
70985;SDS011;58645;43.068;25.610;2022-09-09T08:16:33;2.40;;;2.00;;
70985;SDS011;58645;43.068;25.610;2022-09-09T08:19:01;4.72;;;2.38;;
70985;SDS011;58645;43.068;25.610;2022-09-09T08:21:28;5.15;;;2.28;;
70985;SDS011;58645;43.068;25.610;2022-09-09T08:23:57;3.25;;;2.22;;
70985;SDS011;58645;43.068;25.610;2022-09-09T08:26:31;3.63;;;2.35;;
70985;SDS011;58645;43.068;25.610;2022-09-09T08:28:59;2.13;;;1.60;;
70985;SDS011;58645;43.068;25.610;2022-09-09T08:31:30;2.35;;;2.13;;
70985;SDS011;58645;43.068;25.610;2022-09-09T08:34:02;3.13;;;1.60;;
70985;SDS011;58645;43.068;25.610;2022-09-09T08:36:30;3.17;;;2.40;;
70985;SDS011;58645;43.068;25.610;2022-09-09T08:39:02;4.22;;;2.30;;
70985;SDS011;58645;43.068;25.610;2022-09-09T08:50:26;3.25;;;2.20;;
70985;SDS011;58645;43.068;25.610;2022-09-09T08:55:48;3.10;;;1.90;;
70985;SDS011;58645;43.068;25.610;2022-09-09T08:58:34;3.20;;;2.20;;
70985;SDS011;58645;43.068;25.610;2022-09-09T09:06:08;4.43;;;2.50;;
70985;SDS011;58645;43.068;25.610;2022-09-09T09:08:47;3.42;;;2.53;;
70985;SDS011;58645;43.068;25.610;2022-09-09T09:11:21;3.95;;;1.98;;
70985;SDS011;58645;43.068;25.610;2022-09-09T09:19:01;3.28;;;2.17;;
70985;SDS011;58645;43.068;25.610;2022-09-09T09:26:52;2.65;;;2.45;;
70985;SDS011;58645;43.068;25.610;2022-09-09T09:29:19;3.08;;;2.35;;
70985;SDS011;58645;43.068;25.610;2022-09-09T09:31:53;4.45;;;1.92;;
70985;SDS011;58645;43.068;25.610;2022-09-09T09:34:22;4.18;;;2.45;;
70985;SDS011;58645;43.068;25.610;2022-09-09T09:39:26;4.07;;;2.40;;
70985;SDS011;58645;43.068;25.610;2022-09-09T09:41:53;2.90;;;2.50;;
70985;SDS011;58645;43.068;25.610;2022-09-09T09:44:24;2.92;;;2.53;;
70985;SDS011;58645;43.068;25.610;2022-09-09T09:46:52;3.17;;;2.53;;
70985;SDS011;58645;43.068;25.610;2022-09-09T09:52:00;2.65;;;1.77;;
70985;SDS011;58645;43.068;25.610;2022-09-09T09:54:31;3.50;;;2.17;;
70985;SDS011;58645;43.068;25.610;2022-09-09T09:57:14;2.88;;;1.80;;
70985;SDS011;58645;43.068;25.610;2022-09-09T09:59:41;4.97;;;2.38;;
70985;SDS011;58645;43.068;25.610;2022-09-09T10:02:24;3.95;;;2.33;;
70985;SDS011;58645;43.068;25.610;2022-09-09T10:05:02;3.97;;;2.70;;
70985;SDS011;58645;43.068;25.610;2022-09-09T10:07:29;3.15;;;2.20;;
70985;SDS011;58645;43.068;25.610;2022-09-09T10:09:56;2.97;;;2.08;;
70985;SDS011;58645;43.068;25.610;2022-09-09T10:18:14;4.15;;;2.63;;
70985;SDS011;58645;43.068;25.610;2022-09-09T10:20:54;3.17;;;2.67;;
70985;SDS011;58645;43.068;25.610;2022-09-09T10:29:44;3.40;;;2.50;;
70985;SDS011;58645;43.068;25.610;2022-09-09T10:35:12;4.97;;;2.58;;
70985;SDS011;58645;43.068;25.610;2022-09-09T10:40:38;4.65;;;2.63;;
70985;SDS011;58645;43.068;25.610;2022-09-09T10:56:30;4.25;;;2.67;;
70985;SDS011;58645;43.068;25.610;2022-09-09T10:58:58;4.57;;;2.58;;
70985;SDS011;58645;43.068;25.610;2022-09-09T11:01:31;8.27;;;2.90;;
70985;SDS011;58645;43.068;25.610;2022-09-09T11:04:08;3.58;;;2.80;;
70985;SDS011;58645;43.068;25.610;2022-09-09T11:06:57;3.85;;;2.22;;
70985;SDS011;58645;43.068;25.610;2022-09-09T11:09:31;4.05;;;2.75;;
70985;SDS011;58645;43.068;25.610;2022-09-09T11:12:03;3.35;;;2.55;;
70985;SDS011;58645;43.068;25.610;2022-09-09T11:14:37;6.50;;;2.80;;
70985;SDS011;58645;43.068;25.610;2022-09-09T11:17:12;3.58;;;2.40;;
70985;SDS011;58645;43.068;25.610;2022-09-09T11:19:43;4.18;;;2.30;;
70985;SDS011;58645;43.068;25.610;2022-09-09T11:39:26;4.63;;;2.72;;
70985;SDS011;58645;43.068;25.610;2022-09-09T11:44:39;4.93;;;2.53;;
70985;SDS011;58645;43.068;25.610;2022-09-09T11:55:27;5.40;;;3.30;;
70985;SDS011;58645;43.068;25.610;2022-09-09T12:03:03;3.03;;;2.05;;
70985;SDS011;58645;43.068;25.610;2022-09-09T12:05:51;5.45;;;2.10;;
70985;SDS011;58645;43.068;25.610;2022-09-09T12:08:19;3.30;;;2.15;;
70985;SDS011;58645;43.068;25.610;2022-09-09T12:10:58;4.72;;;2.80;;
70985;SDS011;58645;43.068;25.610;2022-09-09T12:13:25;6.43;;;2.85;;
70985;SDS011;58645;43.068;25.610;2022-09-09T12:18:22;4.70;;;2.90;;
70985;SDS011;58645;43.068;25.610;2022-09-09T12:23:55;4.18;;;2.53;;
70985;SDS011;58645;43.068;25.610;2022-09-09T12:37:44;4.22;;;2.40;;
70985;SDS011;58645;43.068;25.610;2022-09-09T12:42:49;4.88;;;2.30;;
70985;SDS011;58645;43.068;25.610;2022-09-09T12:45:36;5.53;;;2.90;;
70985;SDS011;58645;43.068;25.610;2022-09-09T12:48:06;7.10;;;2.30;;
70985;SDS011;58645;43.068;25.610;2022-09-09T12:50:50;2.72;;;2.08;;
70985;SDS011;58645;43.068;25.610;2022-09-09T12:58:38;4.78;;;3.20;;
70985;SDS011;58645;43.068;25.610;2022-09-09T13:01:05;4.93;;;2.55;;
70985;SDS011;58645;43.068;25.610;2022-09-09T13:03:43;4.07;;;2.63;;
70985;SDS011;58645;43.068;25.610;2022-09-09T13:06:11;6.43;;;3.13;;
70985;SDS011;58645;43.068;25.610;2022-09-09T13:08:42;4.40;;;2.40;;
70985;SDS011;58645;43.068;25.610;2022-09-09T13:11:14;6.45;;;3.38;;
70985;SDS011;58645;43.068;25.610;2022-09-09T13:13:50;5.53;;;2.70;;
70985;SDS011;58645;43.068;25.610;2022-09-09T13:16:19;5.95;;;3.30;;
70985;SDS011;58645;43.068;25.610;2022-09-09T13:18:48;5.07;;;3.05;;
70985;SDS011;58645;43.068;25.610;2022-09-09T13:21:14;5.25;;;2.83;;
70985;SDS011;58645;43.068;25.610;2022-09-09T13:23:40;5.78;;;2.88;;
70985;SDS011;58645;43.068;25.610;2022-09-09T13:26:19;8.02;;;2.72;;
70985;SDS011;58645;43.068;25.610;2022-09-09T13:28:47;7.03;;;2.78;;
70985;SDS011;58645;43.068;25.610;2022-09-09T13:31:22;4.55;;;2.60;;
70985;SDS011;58645;43.068;25.610;2022-09-09T13:33:58;5.45;;;3.42;;
70985;SDS011;58645;43.068;25.610;2022-09-09T13:36:32;3.75;;;2.75;;
70985;SDS011;58645;43.068;25.610;2022-09-09T13:39:00;5.22;;;2.70;;
70985;SDS011;58645;43.068;25.610;2022-09-09T13:41:44;9.07;;;3.10;;
70985;SDS011;58645;43.068;25.610;2022-09-09T13:44:19;5.65;;;3.00;;
70985;SDS011;58645;43.068;25.610;2022-09-09T13:46:58;4.97;;;2.63;;
70985;SDS011;58645;43.068;25.610;2022-09-09T13:49:51;5.40;;;2.65;;
70985;SDS011;58645;43.068;25.610;2022-09-09T13:52:18;4.10;;;2.97;;
70985;SDS011;58645;43.068;25.610;2022-09-09T13:54:47;4.05;;;2.92;;
70985;SDS011;58645;43.068;25.610;2022-09-09T13:57:24;4.05;;;2.63;;
70985;SDS011;58645;43.068;25.610;2022-09-09T13:59:51;3.90;;;2.80;;
70985;SDS011;58645;43.068;25.610;2022-09-09T14:02:17;5.05;;;3.35;;
70985;SDS011;58645;43.068;25.610;2022-09-09T14:04:43;5.03;;;2.80;;
70985;SDS011;58645;43.068;25.610;2022-09-09T14:07:13;5.22;;;2.97;;
70985;SDS011;58645;43.068;25.610;2022-09-09T14:09:40;3.53;;;2.50;;
70985;SDS011;58645;43.068;25.610;2022-09-09T14:12:10;6.70;;;3.13;;
70985;SDS011;58645;43.068;25.610;2022-09-09T14:14:37;8.93;;;3.10;;
70985;SDS011;58645;43.068;25.610;2022-09-09T14:17:07;5.32;;;2.83;;
70985;SDS011;58645;43.068;25.610;2022-09-09T14:19:33;6.78;;;3.22;;
70985;SDS011;58645;43.068;25.610;2022-09-09T14:21:59;4.05;;;2.55;;
70985;SDS011;58645;43.068;25.610;2022-09-09T14:24:26;5.57;;;2.88;;
70985;SDS011;58645;43.068;25.610;2022-09-09T14:26:53;4.68;;;2.90;;
70985;SDS011;58645;43.068;25.610;2022-09-09T14:29:19;5.93;;;2.95;;
70985;SDS011;58645;43.068;25.610;2022-09-09T14:31:45;6.95;;;3.83;;
70985;SDS011;58645;43.068;25.610;2022-09-09T14:34:11;4.15;;;2.80;;
70985;SDS011;58645;43.068;25.610;2022-09-09T14:36:39;6.88;;;3.80;;
70985;SDS011;58645;43.068;25.610;2022-09-09T14:39:06;5.22;;;3.03;;
70985;SDS011;58645;43.068;25.610;2022-09-09T14:41:32;6.82;;;3.83;;
70985;SDS011;58645;43.068;25.610;2022-09-09T14:43:58;6.15;;;3.33;;
70985;SDS011;58645;43.068;25.610;2022-09-09T14:46:25;12.68;;;3.33;;
70985;SDS011;58645;43.068;25.610;2022-09-09T14:48:51;5.60;;;3.38;;
70985;SDS011;58645;43.068;25.610;2022-09-09T14:51:22;5.07;;;3.40;;
70985;SDS011;58645;43.068;25.610;2022-09-09T14:53:53;6.47;;;2.95;;
70985;SDS011;58645;43.068;25.610;2022-09-09T14:56:20;7.88;;;3.95;;
70985;SDS011;58645;43.068;25.610;2022-09-09T14:58:48;7.60;;;3.25;;
70985;SDS011;58645;43.068;25.610;2022-09-09T15:01:15;9.52;;;4.50;;
70985;SDS011;58645;43.068;25.610;2022-09-09T15:03:43;8.27;;;4.10;;
70985;SDS011;58645;43.068;25.610;2022-09-09T15:06:14;7.72;;;3.85;;
70985;SDS011;58645;43.068;25.610;2022-09-09T15:08:41;5.70;;;3.75;;
70985;SDS011;58645;43.068;25.610;2022-09-09T15:11:09;8.25;;;4.38;;
70985;SDS011;58645;43.068;25.610;2022-09-09T15:13:37;7.38;;;3.90;;
70985;SDS011;58645;43.068;25.610;2022-09-09T15:16:08;7.55;;;4.47;;
70985;SDS011;58645;43.068;25.610;2022-09-09T15:18:44;8.45;;;4.65;;
70985;SDS011;58645;43.068;25.610;2022-09-09T15:21:11;11.27;;;5.20;;
70985;SDS011;58645;43.068;25.610;2022-09-09T15:23:44;9.07;;;4.63;;
70985;SDS011;58645;43.068;25.610;2022-09-09T15:26:10;7.35;;;4.95;;
70985;SDS011;58645;43.068;25.610;2022-09-09T15:28:39;10.15;;;4.57;;
70985;SDS011;58645;43.068;25.610;2022-09-09T15:31:15;11.07;;;4.60;;
70985;SDS011;58645;43.068;25.610;2022-09-09T15:33:48;7.90;;;5.38;;
70985;SDS011;58645;43.068;25.610;2022-09-09T15:36:14;10.07;;;5.68;;
70985;SDS011;58645;43.068;25.610;2022-09-09T15:38:44;6.25;;;4.35;;
70985;SDS011;58645;43.068;25.610;2022-09-09T15:41:11;12.07;;;5.88;;
70985;SDS011;58645;43.068;25.610;2022-09-09T15:43:38;10.40;;;4.45;;
70985;SDS011;58645;43.068;25.610;2022-09-09T15:48:43;11.57;;;4.50;;
70985;SDS011;58645;43.068;25.610;2022-09-09T15:51:10;9.90;;;4.55;;
70985;SDS011;58645;43.068;25.610;2022-09-09T15:53:36;13.05;;;4.68;;
70985;SDS011;58645;43.068;25.610;2022-09-09T15:56:04;8.38;;;4.97;;
70985;SDS011;58645;43.068;25.610;2022-09-09T15:58:31;9.27;;;4.82;;
70985;SDS011;58645;43.068;25.610;2022-09-09T16:01:03;9.00;;;4.78;;
70985;SDS011;58645;43.068;25.610;2022-09-09T16:03:40;6.72;;;5.63;;
70985;SDS011;58645;43.068;25.610;2022-09-09T16:06:16;9.10;;;5.10;;
70985;SDS011;58645;43.068;25.610;2022-09-09T16:08:44;8.95;;;4.85;;
70985;SDS011;58645;43.068;25.610;2022-09-09T16:11:15;9.95;;;4.70;;
70985;SDS011;58645;43.068;25.610;2022-09-09T16:13:45;6.55;;;5.10;;
70985;SDS011;58645;43.068;25.610;2022-09-09T16:16:13;6.82;;;4.82;;
70985;SDS011;58645;43.068;25.610;2022-09-09T16:21:15;12.65;;;5.35;;
70985;SDS011;58645;43.068;25.610;2022-09-09T16:23:42;8.93;;;4.93;;
70985;SDS011;58645;43.068;25.610;2022-09-09T16:26:10;8.57;;;5.80;;
70985;SDS011;58645;43.068;25.610;2022-09-09T16:28:38;8.45;;;4.97;;
70985;SDS011;58645;43.068;25.610;2022-09-09T16:31:05;17.13;;;5.07;;
70985;SDS011;58645;43.068;25.610;2022-09-09T16:33:36;10.65;;;5.28;;
70985;SDS011;58645;43.068;25.610;2022-09-09T16:36:09;9.27;;;4.88;;
70985;SDS011;58645;43.068;25.610;2022-09-09T16:38:37;7.50;;;5.88;;
70985;SDS011;58645;43.068;25.610;2022-09-09T16:41:04;10.15;;;5.82;;
70985;SDS011;58645;43.068;25.610;2022-09-09T16:43:34;7.55;;;5.13;;
70985;SDS011;58645;43.068;25.610;2022-09-09T16:46:01;9.10;;;5.65;;
70985;SDS011;58645;43.068;25.610;2022-09-09T16:48:32;11.80;;;5.68;;
70985;SDS011;58645;43.068;25.610;2022-09-09T16:51:05;9.75;;;6.10;;
70985;SDS011;58645;43.068;25.610;2022-09-09T16:53:32;11.50;;;5.78;;
70985;SDS011;58645;43.068;25.610;2022-09-09T16:56:04;11.73;;;6.13;;
70985;SDS011;58645;43.068;25.610;2022-09-09T16:58:34;10.02;;;5.97;;
70985;SDS011;58645;43.068;25.610;2022-09-09T17:01:00;15.73;;;6.15;;
70985;SDS011;58645;43.068;25.610;2022-09-09T17:03:30;13.30;;;6.75;;
70985;SDS011;58645;43.068;25.610;2022-09-09T17:05:56;9.77;;;5.90;;
70985;SDS011;58645;43.068;25.610;2022-09-09T17:08:23;9.60;;;5.82;;
70985;SDS011;58645;43.068;25.610;2022-09-09T17:10:49;10.95;;;6.65;;
70985;SDS011;58645;43.068;25.610;2022-09-09T17:13:15;7.90;;;6.00;;
70985;SDS011;58645;43.068;25.610;2022-09-09T17:15:44;14.13;;;6.00;;
70985;SDS011;58645;43.068;25.610;2022-09-09T17:18:10;10.65;;;6.05;;
70985;SDS011;58645;43.068;25.610;2022-09-09T17:20:37;12.32;;;6.20;;
70985;SDS011;58645;43.068;25.610;2022-09-09T17:23:07;15.32;;;6.03;;
70985;SDS011;58645;43.068;25.610;2022-09-09T17:25:34;16.75;;;5.60;;
70985;SDS011;58645;43.068;25.610;2022-09-09T17:28:00;10.52;;;6.35;;
70985;SDS011;58645;43.068;25.610;2022-09-09T17:30:29;10.60;;;5.80;;
70985;SDS011;58645;43.068;25.610;2022-09-09T17:32:56;11.43;;;6.22;;
70985;SDS011;58645;43.068;25.610;2022-09-09T17:35:22;11.00;;;5.78;;
70985;SDS011;58645;43.068;25.610;2022-09-09T17:37:47;12.90;;;6.18;;
70985;SDS011;58645;43.068;25.610;2022-09-09T17:40:13;10.93;;;5.78;;
70985;SDS011;58645;43.068;25.610;2022-09-09T17:42:39;13.38;;;6.68;;
70985;SDS011;58645;43.068;25.610;2022-09-09T17:45:05;12.02;;;5.50;;
70985;SDS011;58645;43.068;25.610;2022-09-09T17:47:31;11.07;;;5.88;;
70985;SDS011;58645;43.068;25.610;2022-09-09T17:49:57;12.63;;;6.10;;
70985;SDS011;58645;43.068;25.610;2022-09-09T17:52:23;9.88;;;6.00;;
70985;SDS011;58645;43.068;25.610;2022-09-09T17:54:49;13.27;;;8.10;;